首页
METAR-TAF:

METAR-TAF

机场 :

西班牙港, 特立尼达岛, 千里達及托巴哥

皮阿尔科国际机场

纬度: 10-37N, 经度: 061-21W, 海拔: 12米

当前天气观测

该预报发布于50分钟前的17:00 UTC
风速12节,风向
温度 30°C
湿度 62%
气压 1013 hPa
能见度10公里或以上
散云层高于1800英尺
散云层高于3800英尺
小阵雨, 附近有阵雨

METAR: TTPP 241700Z 10012KT 9999 -SHRA VCSH SCT018 SCT038 30/22 Q1013 NOSIG RMK VCSH-N-E

时间: 13:50 (17:50 UTC)

预报

该预报发布于1小时和50分钟前的16:00 UTC
预报有效从24日的 18点(UTC)到 25日的 18点(UTC)
风速12节,风向东转东南
能见度10公里或以上
散云层高于1800英尺
几率 40% :
短暂存在
从 24日的 18点(UTC)到 24日的 24点(UTC)
多云层高于1500英尺
阵雨
成为
从 25日的 00点(UTC)到 25日的 02点(UTC)
风速5节,风向
成为
从 25日的 12点(UTC)到 25日的 14点(UTC)
风速12节,风向

TAF: TTPP 241600Z 2418/2518 11012KT 9999 SCT018 PROB40 TEMPO 2418/2424 SHRA BKN015 BECMG 2500/2502 10005KT BECMG 2512/2514 10012KT

超过4000个机场的气象观测和天气预报(METAR&TAF报告)。

可查询的气象台以黄色和红色小点在地图上表示。

将鼠标移到小点上方,可查看气象台名称。

然后点击查看天气观测和预报。

如需切换地图:点击带黑十字的绿色按钮放大地图;点击带横线的绿色按钮缩小地图;或者点击绿色箭头查看邻近地区的地图。


METAR-TAF: